Time;durP1;ratioP1;P1;durP2;ratioP2;P2;SDS_P1;SDS_P2;PMS_P1;PMS_P2;Temp;Humidity;BMP_temperature;BMP_pressure;BME280_temperature;BME280_humidity;BME280_pressure;Samples;Min_cycle;Max_cycle;Signal;HPM_P1;HPM_P2
2023/07/02 00:01:47;;;;;;;7.00;6.20;;;;;;;15.46;100.00;96469.23;110163;1243;59735;-64
2023/07/02 00:04:21;;;;;;;7.60;6.50;;;;;;;15.45;100.00;96468.64;110108;1245;59589;-64
2023/07/02 00:06:53;;;;;;;7.60;6.60;;;;;;;15.44;100.00;96468.91;110148;1242;71197;-64
2023/07/02 00:09:26;;;;;;;7.30;6.60;;;;;;;15.44;100.00;96465.41;110117;1245;68402;-64
2023/07/02 00:11:56;;;;;;;6.90;6.20;;;;;;;15.43;100.00;96464.42;110110;1242;68902;-63
2023/07/02 00:14:28;;;;;;;7.20;6.40;;;;;;;15.44;100.00;96463.85;110095;1245;59685;-64
2023/07/02 00:16:59;;;;;;;9.00;7.10;;;;;;;15.44;100.00;96464.72;110102;1246;59690;-64
2023/07/02 00:19:29;;;;;;;7.50;6.30;;;;;;;15.45;100.00;96468.64;110111;1244;70612;-64
2023/07/02 00:22:02;;;;;;;6.30;5.70;;;;;;;15.44;100.00;96464.69;110117;1245;68503;-63
2023/07/02 00:24:32;;;;;;;6.10;5.50;;;;;;;15.42;100.00;96462.80;110081;1252;68684;-64
2023/07/02 00:27:03;;;;;;;7.50;6.20;;;;;;;15.39;100.00;96458.23;110133;1252;60145;-64
2023/07/02 00:29:33;;;;;;;7.10;6.40;;;;;;;15.37;100.00;96454.97;110119;1245;59676;-65
2023/07/02 00:32:03;;;;;;;;;;;;;;;15.35;100.00;96451.23;110125;1243;71498;-64
2023/07/02 00:34:33;;;;;;;8.00;5.70;;;;;;;15.36;100.00;96451.85;110187;1245;68891;-64
2023/07/02 00:37:03;;;;;;;8.20;5.60;;;;;;;15.38;100.00;96451.55;110102;1245;69869;-63
2023/07/02 00:39:33;;;;;;;7.00;5.90;;;;;;;15.38;100.00;96450.82;110092;1245;59785;-64
2023/07/02 00:42:05;;;;;;;8.00;6.80;;;;;;;15.40;100.00;96449.15;109898;1246;59753;-64
2023/07/02 00:44:40;;;;;;;7.30;6.30;;;;;;;15.42;100.00;96445.45;110085;1244;70379;-64
2023/07/02 00:47:12;;;;;;;6.60;5.50;;;;;;;15.44;100.00;96445.76;109860;1248;69132;-65
2023/07/02 00:49:43;;;;;;;6.40;5.50;;;;;;;15.47;100.00;96442.82;110088;1247;69336;-63
2023/07/02 00:52:14;;;;;;;7.90;5.60;;;;;;;15.49;100.00;96443.91;110136;1244;59681;-64
2023/07/02 00:54:45;;;;;;;7.60;6.10;;;;;;;15.51;100.00;96444.02;110124;1247;59619;-64
2023/07/02 00:57:16;;;;;;;6.80;6.10;;;;;;;15.52;100.00;96448.02;110109;1244;71249;-63
2023/07/02 00:59:46;;;;;;;8.30;6.90;;;;;;;15.51;100.00;96452.13;110184;1251;67486;-65
2023/07/02 01:02:16;;;;;;;7.40;6.30;;;;;;;15.41;100.00;96454.27;110056;1243;69177;-65
2023/07/02 01:04:49;;;;;;;;;;;;;;;15.30;100.00;96450.56;110124;1244;59724;-64
2023/07/02 01:07:22;;;;;;;7.40;6.10;;;;;;;15.26;100.00;96452.89;110134;1241;59705;-65
2023/07/02 01:09:55;;;;;;;7.20;6.10;;;;;;;15.26;100.00;96453.66;110163;1245;70821;-64
2023/07/02 01:12:28;;;;;;;7.70;6.40;;;;;;;15.25;100.00;96453.33;110133;1245;69243;-63
2023/07/02 01:15:03;;;;;;;6.70;6.00;;;;;;;15.20;100.00;96453.55;110140;1245;67397;-64
2023/07/02 01:17:41;;;;;;;8.50;7.00;;;;;;;15.16;100.00;96459.55;110137;1243;59757;-63
2023/07/02 01:20:16;;;;;;;8.90;6.70;;;;;;;15.14;100.00;96459.70;110152;1241;59668;-63
2023/07/02 01:22:52;;;;;;;7.60;6.30;;;;;;;15.13;100.00;96451.83;110177;1244;71306;-64
2023/07/02 01:25:27;;;;;;;7.30;5.90;;;;;;;15.15;100.00;96451.99;110181;1244;69303;-64
2023/07/02 01:27:59;;;;;;;7.40;6.50;;;;;;;15.16;100.00;96448.52;110147;1252;69272;-64
2023/07/02 01:30:31;;;;;;;6.20;5.50;;;;;;;15.19;100.00;96451.56;110147;1241;59634;-64
2023/07/02 01:33:06;;;;;;;6.70;6.00;;;;;;;15.21;100.00;96450.10;110149;1246;59605;-63
2023/07/02 01:35:37;;;;;;;7.50;6.20;;;;;;;15.25;100.00;96448.80;110163;1245;71218;-63
2023/07/02 01:38:10;;;;;;;7.30;5.90;;;;;;;15.28;100.00;96448.15;110170;1246;68480;-64
2023/07/02 01:40:43;;;;;;;6.30;5.20;;;;;;;15.31;100.00;96447.02;110133;1245;69898;-63
2023/07/02 01:43:15;;;;;;;6.80;5.80;;;;;;;15.34;100.00;96445.28;110140;1243;59670;-65
2023/07/02 01:45:45;;;;;;;;;;;;;;;15.36;100.00;96440.98;110219;1245;59688;-64
2023/07/02 01:48:18;;;;;;;6.50;5.90;;;;;;;15.37;100.00;96439.10;110170;1242;71487;-65
2023/07/02 01:50:51;;;;;;;6.60;5.20;;;;;;;15.40;100.00;96439.31;110104;1245;68611;-65
2023/07/02 01:53:22;;;;;;;6.70;5.40;;;;;;;15.42;100.00;96436.63;110088;1251;69974;-64
2023/07/02 01:55:53;;;;;;;7.00;5.70;;;;;;;15.44;100.00;96437.89;110151;1241;59666;-64
2023/07/02 01:58:28;;;;;;;5.90;5.20;;;;;;;15.45;100.00;96438.05;110183;1246;59776;-64
2023/07/02 02:01:00;;;;;;;6.50;5.90;;;;;;;15.47;100.00;96437.71;110165;1241;70216;-66
2023/07/02 02:03:31;;;;;;;6.70;6.00;;;;;;;15.49;100.00;96442.89;110181;1241;69120;-64
2023/07/02 02:06:02;;;;;;;7.50;5.90;;;;;;;15.47;100.00;96437.65;110186;1246;68724;-65
2023/07/02 02:08:31;;;;;;;7.60;6.00;;;;;;;15.46;100.00;96437.46;110163;1241;59748;-65
2023/07/02 02:11:01;;;;;;;7.20;5.60;;;;;;;15.47;100.00;96439.06;110156;1246;59697;-65
2023/07/02 02:13:32;;;;;;;6.20;5.60;;;;;;;15.48;100.00;96439.53;110135;1246;71488;-65
2023/07/02 02:16:04;;;;;;;6.60;5.70;;;;;;;15.45;100.00;96443.71;110126;1245;68583;-65
2023/07/02 02:18:38;;;;;;;6.40;5.80;;;;;;;15.41;100.00;96439.04;110136;1243;68858;-65
2023/07/02 02:21:10;;;;;;;6.50;5.70;;;;;;;15.40;100.00;96440.60;110145;1241;59701;-65
2023/07/02 02:23:43;;;;;;;7.30;6.10;;;;;;;15.40;100.00;96441.11;110162;1243;59693;-65
2023/07/02 02:26:21;;;;;;;6.40;5.70;;;;;;;15.38;100.00;96442.02;110139;1244;71345;-65
2023/07/02 02:28:59;;;;;;;6.40;5.50;;;;;;;15.40;100.00;96443.39;110162;1245;68476;-65
2023/07/02 02:31:29;;;;;;;;;;;;;;;15.40;100.00;96441.22;110136;1243;67588;-65
2023/07/02 02:34:01;;;;;;;6.80;6.10;;;;;;;15.42;100.00;96441.23;110118;1241;60082;-65
2023/07/02 02:36:34;;;;;;;6.40;5.50;;;;;;;15.44;100.00;96440.30;110140;1248;59673;-64
2023/07/02 02:39:04;;;;;;;6.80;5.90;;;;;;;15.45;100.00;96441.17;110151;1241;71405;-64
2023/07/02 02:41:35;;;;;;;7.20;6.30;;;;;;;15.47;100.00;96445.41;110149;1246;68563;-63
2023/07/02 02:44:07;;;;;;;6.80;6.20;;;;;;;15.47;100.00;96444.63;110111;1242;68984;-63
2023/07/02 02:46:38;;;;;;;7.60;6.50;;;;;;;15.48;100.00;96448.64;110136;1243;59694;-64
2023/07/02 02:49:11;;;;;;;7.60;6.60;;;;;;;15.48;100.00;96452.48;110111;1246;59698;-64
2023/07/02 02:51:43;;;;;;;8.80;7.10;;;;;;;15.46;100.00;96459.34;110148;1246;70242;-63
2023/07/02 02:54:15;;;;;;;7.90;6.50;;;;;;;15.37;100.00;96462.15;110163;1241;69274;-63
2023/07/02 02:56:46;;;;;;;6.60;5.60;;;;;;;15.33;100.00;96456.64;110119;1241;68361;-64
2023/07/02 02:59:20;;;;;;;7.00;6.30;;;;;;;15.34;100.00;96457.56;110183;1241;59650;-64
2023/07/02 03:01:51;;;;;;;7.20;6.30;;;;;;;15.36;100.00;96461.52;110125;1241;59681;-64
2023/07/02 03:04:24;;;;;;;7.30;6.60;;;;;;;15.39;100.00;96467.35;110134;1241;70538;-64
2023/07/02 03:06:56;;;;;;;6.70;5.40;;;;;;;15.43;100.00;96465.20;110161;1246;69070;-64
2023/07/02 03:09:26;;;;;;;6.10;5.50;;;;;;;15.47;100.00;96462.29;110201;1251;70196;-65
2023/07/02 03:11:57;;;;;;;6.50;5.80;;;;;;;15.52;100.00;96459.38;110173;1245;59671;-63
2023/07/02 03:14:28;;;;;;;6.80;5.90;;;;;;;15.57;100.00;96463.26;110199;1241;59689;-65
2023/07/02 03:17:00;;;;;;;6.00;5.40;;;;;;;15.63;100.00;96466.70;110173;1242;70447;-65
2023/07/02 03:19:33;;;;;;;6.80;5.90;;;;;;;15.68;100.00;96471.61;110180;1245;69251;-64
2023/07/02 03:22:06;;;;;;;6.20;5.60;;;;;;;15.74;100.00;96477.77;110143;1244;69410;-64
2023/07/02 03:24:38;;;;;;;6.40;5.50;;;;;;;15.79;100.00;96477.61;110173;1249;59766;-64
2023/07/02 03:27:08;;;;;;;9.10;6.50;;;;;;;15.85;100.00;96479.44;110179;1245;59640;-64
2023/07/02 03:29:38;;;;;;;7.40;6.00;;;;;;;15.90;100.00;96473.64;110151;1243;71203;-64
2023/07/02 03:32:09;;;;;;;7.70;6.30;;;;;;;15.96;100.00;96472.27;110139;1243;68994;-62
2023/07/02 03:34:38;;;;;;;5.50;4.80;;;;;;;16.00;100.00;96473.35;110162;1246;69321;-65
2023/07/02 03:37:08;;;;;;;7.10;5.60;;;;;;;16.06;100.00;96474.36;110143;1241;59745;-66
2023/07/02 03:39:39;;;;;;;6.50;5.50;;;;;;;16.11;100.00;96472.40;110150;1246;59737;-64
2023/07/02 03:42:10;;;;;;;7.00;6.10;;;;;;;16.15;100.00;96467.52;110186;1245;70790;-64
2023/07/02 03:44:41;;;;;;;6.70;6.00;;;;;;;16.21;100.00;96466.84;110162;1245;69068;-64
2023/07/02 03:47:15;;;;;;;6.30;5.70;;;;;;;16.27;100.00;96465.51;110124;1246;69716;-64
2023/07/02 03:49:48;;;;;;;6.10;5.40;;;;;;;16.34;100.00;96466.05;110137;1241;59628;-64
2023/07/02 03:52:18;;;;;;;6.60;5.60;;;;;;;16.38;100.00;96466.42;110155;1244;59628;-64
2023/07/02 03:54:49;;;;;;;8.10;6.40;;;;;;;16.41;100.00;96463.58;110162;1241;71215;-64
2023/07/02 03:57:20;;;;;;;8.20;7.40;;;;;;;16.45;100.00;96458.74;110149;1241;68600;-64
2023/07/02 03:59:53;;;;;;;7.80;6.80;;;;;;;16.47;100.00;96456.77;110137;1241;68561;-63
2023/07/02 04:02:23;;;;;;;7.40;6.00;;;;;;;16.51;100.00;96454.04;110120;1241;59736;-65
2023/07/02 04:04:53;;;;;;;7.10;6.20;;;;;;;16.57;100.00;96456.91;110180;1245;59681;-64
2023/07/02 04:07:23;;;;;;;7.40;5.70;;;;;;;16.63;100.00;96461.11;110137;1241;71219;-64
2023/07/02 04:09:56;;;;;;;6.80;5.70;;;;;;;16.68;100.00;96460.71;110133;1244;69460;-64
2023/07/02 04:12:27;;;;;;;5.70;5.20;;;;;;;16.72;100.00;96457.65;110127;1243;69104;-64
2023/07/02 04:14:57;;;;;;;6.20;5.40;;;;;;;16.76;100.00;96454.41;110122;1241;60076;-64
2023/07/02 04:17:27;;;;;;;6.70;5.70;;;;;;;16.77;100.00;96455.19;110183;1245;59685;-63
2023/07/02 04:20:00;;;;;;;7.00;5.90;;;;;;;16.77;100.00;96452.52;110136;1245;70122;-63
2023/07/02 04:22:30;;;;;;;7.10;6.10;;;;;;;16.76;100.00;96458.42;110154;1245;68394;-64
2023/07/02 04:25:00;;;;;;;7.60;5.90;;;;;;;16.73;100.00;96464.95;110206;1244;69059;-65
2023/07/02 04:27:56;;;;;;;6.20;5.50;;;;;;;16.69;100.00;96467.63;110142;1244;59724;-64
2023/07/02 04:30:25;;;;;;;5.90;5.30;;;;;;;16.66;100.00;96465.42;110080;1244;59680;-64
2023/07/02 04:32:55;;;;;;;5.80;5.00;;;;;;;16.69;100.00;96473.51;110123;1243;70512;-65
2023/07/02 04:35:24;;;;;;;7.30;5.50;;;;;;;16.71;100.00;96474.49;110140;1244;69634;-65
2023/07/02 04:37:53;;;;;;;;;;;;;;;16.76;100.00;96478.20;110134;1241;68713;-65
2023/07/02 04:40:23;;;;;;;6.10;5.50;;;;;;;16.83;100.00;96474.69;110155;1245;59700;-63
2023/07/02 04:42:57;;;;;;;6.60;5.60;;;;;;;16.92;100.00;96476.95;110173;1241;59752;-65
2023/07/02 04:45:31;;;;;;;5.90;5.20;;;;;;;17.03;100.00;96474.78;110143;1242;71311;-63
2023/07/02 04:48:00;;;;;;;6.60;5.90;;;;;;;17.15;100.00;96478.15;110111;1241;69622;-63
2023/07/02 04:50:30;;;;;;;6.00;5.40;;;;;;;17.28;100.00;96479.55;110132;1243;69209;-63
2023/07/02 04:52:59;;;;;;;6.60;5.70;;;;;;;17.42;100.00;96483.36;110075;1243;59754;-63
2023/07/02 04:55:28;;;;;;;6.30;5.70;;;;;;;17.52;100.00;96483.02;110181;1244;59689;-64
2023/07/02 04:57:57;;;;;;;5.80;5.20;;;;;;;17.62;100.00;96485.76;110184;1241;71951;-64
2023/07/02 05:00:27;;;;;;;7.90;6.10;;;;;;;17.71;100.00;96478.73;110153;1244;69810;-64
2023/07/02 05:02:57;;;;;;;5.50;5.00;;;;;;;17.81;100.00;96480.92;110143;1242;69897;-64
2023/07/02 05:05:26;;;;;;;5.70;5.10;;;;;;;17.93;100.00;96484.48;110166;1245;59747;-64
2023/07/02 05:07:56;;;;;;;6.10;5.00;;;;;;;18.05;100.00;96486.54;110123;1244;59685;-64
2023/07/02 05:10:25;;;;;;;5.90;4.80;;;;;;;18.16;100.00;96489.11;110115;1245;70655;-64
2023/07/02 05:12:54;;;;;;;6.70;5.00;;;;;;;18.23;100.00;96492.58;110139;1245;69801;-63
2023/07/02 05:15:24;;;;;;;6.10;4.90;;;;;;;18.29;100.00;96494.75;110121;1241;68104;-63
2023/07/02 05:17:53;;;;;;;5.30;4.80;;;;;;;18.41;98.90;96500.33;110138;1241;59965;-65
2023/07/02 05:20:24;;;;;;;5.10;4.60;;;;;;;18.49;96.93;96501.27;110150;1241;59676;-65
2023/07/02 05:22:54;;;;;;;5.50;5.00;;;;;;;18.59;98.50;96496.55;110150;1244;71518;-65
2023/07/02 05:25:22;;;;;;;5.10;4.30;;;;;;;18.68;98.18;96501.17;110177;1244;70091;-65
2023/07/02 05:27:52;;;;;;;;;;;;;;;18.79;97.69;96503.66;110176;1244;69882;-65
2023/07/02 05:30:22;;;;;;;5.70;4.90;;;;;;;18.87;97.37;96502.25;110166;1244;59743;-64
2023/07/02 05:32:51;;;;;;;5.50;5.00;;;;;;;18.93;96.61;96499.95;110200;1241;59702;-64
2023/07/02 05:35:20;;;;;;;6.70;4.60;;;;;;;19.00;96.48;96503.99;110191;1243;72734;-64
2023/07/02 05:37:50;;;;;;;6.80;4.80;;;;;;;19.08;95.84;96504.09;110132;1241;69782;-65
2023/07/02 05:40:19;;;;;;;5.30;4.80;;;;;;;19.20;95.56;96502.09;110143;1244;69105;-64
2023/07/02 05:42:48;;;;;;;5.20;4.60;;;;;;;19.35;94.00;96502.33;110126;1246;60186;-63
2023/07/02 05:45:17;;;;;;;4.90;4.40;;;;;;;19.54;93.23;96501.55;110137;1241;59734;-64
2023/07/02 05:47:46;;;;;;;;;;;;;;;19.74;90.90;96502.11;110150;1245;71818;-63
2023/07/02 05:50:16;;;;;;;8.00;5.20;;;;;;;19.89;93.32;96504.56;110205;1243;69533;-63
2023/07/02 05:52:45;;;;;;;6.00;5.10;;;;;;;19.99;92.91;96506.65;110128;1243;69239;-65
2023/07/02 05:55:14;;;;;;;5.20;4.70;;;;;;;20.14;93.89;96503.70;110178;1241;59680;-63
2023/07/02 05:57:44;;;;;;;5.70;4.90;;;;;;;20.39;90.90;96506.87;110202;1243;59748;-64
2023/07/02 06:00:14;;;;;;;5.40;4.60;;;;;;;20.62;90.40;96508.17;110196;1244;71362;-65
2023/07/02 06:02:46;;;;;;;6.10;4.40;;;;;;;20.82;87.13;96513.20;110177;1244;69838;-66
2023/07/02 06:05:16;;;;;;;5.50;5.00;;;;;;;20.98;85.95;96513.70;110175;1242;69250;-64
2023/07/02 06:07:45;;;;;;;;;;;;;;;21.06;84.74;96515.88;110141;1243;59760;-65
2023/07/02 06:10:14;;;;;;;5.50;5.00;;;;;;;21.10;84.38;96515.48;110189;1244;59709;-63
2023/07/02 06:12:44;;;;;;;6.10;4.90;;;;;;;21.31;82.99;96513.27;110195;1244;70642;-63
2023/07/02 06:15:13;;;;;;;5.10;4.70;;;;;;;21.49;81.75;96508.41;110184;1244;69639;-64
2023/07/02 06:17:42;;;;;;;;;;;;;;;21.50;81.15;96511.00;110135;1244;69685;-64
2023/07/02 06:20:12;;;;;;;6.20;5.60;;;;;;;21.60;81.17;96504.18;110143;1243;59674;-65
2023/07/02 06:22:42;;;;;;;6.50;5.60;;;;;;;21.69;81.03;96507.59;110154;1245;59725;-63
2023/07/02 06:25:11;;;;;;;6.00;5.40;;;;;;;21.80;80.98;96505.05;110130;1246;71567;-63
2023/07/02 06:27:40;;;;;;;6.00;5.40;;;;;;;21.80;79.84;96508.58;110208;1243;69769;-64
2023/07/02 06:30:10;;;;;;;6.40;5.20;;;;;;;21.57;80.60;96511.25;110157;1244;69609;-64
2023/07/02 06:32:39;;;;;;;;;;;;;;;21.59;81.42;96509.94;110173;1241;59749;-65
2023/07/02 06:35:08;;;;;;;7.20;5.20;;;;;;;21.61;82.11;96506.46;110156;1245;59629;-64
2023/07/02 06:37:37;;;;;;;6.50;5.70;;;;;;;21.76;81.06;96506.11;110197;1244;72011;-64
2023/07/02 06:40:08;;;;;;;6.30;5.70;;;;;;;21.62;80.61;96503.55;110137;1244;70131;-63
2023/07/02 06:42:37;;;;;;;6.30;5.60;;;;;;;21.62;81.13;96507.98;110128;1245;69964;-65
2023/07/02 06:45:07;;;;;;;7.20;6.20;;;;;;;21.48;81.10;96507.92;110149;1244;59743;-64
2023/07/02 06:47:36;;;;;;;7.10;6.30;;;;;;;21.55;80.71;96506.18;110154;1241;59670;-62
2023/07/02 06:50:06;;;;;;;6.80;6.00;;;;;;;21.61;81.67;96503.77;110168;1245;71326;-64
2023/07/02 06:52:36;;;;;;;7.50;6.50;;;;;;;21.73;80.94;96504.06;110134;1241;68568;-63
2023/07/02 06:55:05;;;;;;;6.30;5.70;;;;;;;21.81;79.80;96501.24;110148;1244;69847;-63
2023/07/02 06:57:34;;;;;;;6.30;5.70;;;;;;;21.94;79.62;96504.61;110152;1241;60134;-64
2023/07/02 07:00:04;;;;;;;6.80;6.20;;;;;;;22.03;80.89;96507.27;110193;1243;59695;-63
2023/07/02 07:02:33;;;;;;;9.00;6.70;;;;;;;22.14;79.57;96507.29;110151;1245;71365;-64
2023/07/02 07:05:04;;;;;;;8.40;7.20;;;;;;;22.06;78.88;96513.33;110142;1245;69196;-63
2023/07/02 07:07:33;;;;;;;8.50;7.60;;;;;;;22.06;78.39;96510.48;110104;1241;69945;-64
2023/07/02 07:10:03;;;;;;;7.90;6.50;;;;;;;21.99;79.73;96515.46;110093;1241;59735;-65
2023/07/02 07:12:33;;;;;;;7.50;6.70;;;;;;;22.12;78.78;96515.63;110188;1243;59666;-63
2023/07/02 07:15:02;;;;;;;8.00;7.30;;;;;;;22.12;77.36;96518.09;110131;1244;71400;-63
2023/07/02 07:17:31;;;;;;;7.50;6.80;;;;;;;22.30;77.51;96517.79;110156;1244;69267;-63
2023/07/02 07:20:03;;;;;;;7.10;6.40;;;;;;;22.41;76.80;96516.64;110138;1245;69887;-63
2023/07/02 07:22:33;;;;;;;7.90;7.10;;;;;;;22.63;75.29;96515.31;110141;1244;59729;-64
2023/07/02 07:25:03;;;;;;;7.50;6.80;;;;;;;22.78;74.35;96517.23;110136;1244;59692;-63
2023/07/02 07:27:32;;;;;;;8.80;7.90;;;;;;;22.95;73.53;96517.02;110168;1243;72260;-64
2023/07/02 07:30:02;;;;;;;8.00;7.20;;;;;;;23.10;70.54;96520.80;110173;1241;69556;-64
2023/07/02 07:32:31;;;;;;;7.60;6.90;;;;;;;23.43;71.00;96519.29;110171;1245;69855;-64
2023/07/02 07:35:00;;;;;;;8.30;7.60;;;;;;;23.86;69.89;96518.00;110202;1244;59770;-64
2023/07/02 07:37:29;;;;;;;8.20;7.50;;;;;;;24.12;68.63;96520.02;110172;1249;59624;-64
2023/07/02 07:39:58;;;;;;;8.10;7.30;;;;;;;24.57;67.23;96522.66;110190;1241;71980;-65
2023/07/02 07:42:27;;;;;;;8.10;7.40;;;;;;;24.92;66.55;96520.84;110163;1243;69760;-64
2023/07/02 07:44:56;;;;;;;6.80;6.20;;;;;;;24.87;64.81;96521.14;110176;1244;69886;-64
2023/07/02 07:47:25;;;;;;;7.70;7.00;;;;;;;24.86;64.99;96522.18;110167;1244;59761;-63
2023/07/02 07:49:54;;;;;;;6.70;6.10;;;;;;;25.06;64.97;96517.56;110182;1244;59738;-64
2023/07/02 07:52:23;;;;;;;7.60;6.80;;;;;;;25.27;64.72;96517.97;110182;1244;72087;-63
2023/07/02 07:54:53;;;;;;;;;;;;;;;25.39;62.97;96515.34;110144;1244;69295;-63
2023/07/02 07:57:21;;;;;;;;;;;;;;;25.54;61.95;96514.98;110156;1244;68357;-64
2023/07/02 07:59:51;;;;;;;;;;;;;;;25.38;61.73;96516.67;110171;1244;60114;-63
2023/07/02 08:02:22;;;;;;;7.70;6.90;;;;;;;25.60;61.64;96514.18;110189;1241;59739;-63
2023/07/02 08:04:53;;;;;;;7.40;6.70;;;;;;;25.92;62.50;96514.80;110232;1244;71211;-65
2023/07/02 08:07:22;;;;;;;9.10;8.30;;;;;;;26.13;60.57;96513.39;110188;1245;69037;-65
2023/07/02 08:09:50;;;;;;;7.90;7.20;;;;;;;26.03;58.46;96508.91;110128;1241;69257;-62
2023/07/02 08:12:20;;;;;;;7.70;6.90;;;;;;;25.62;59.79;96509.10;110126;1243;59741;-65
2023/07/02 08:14:49;;;;;;;7.50;6.80;;;;;;;25.68;60.99;96512.14;110151;1243;59802;-63
2023/07/02 08:17:18;;;;;;;8.10;7.40;;;;;;;26.14;60.47;96513.53;110151;1242;71313;-63
2023/07/02 08:19:47;;;;;;;7.50;6.80;;;;;;;26.67;59.59;96514.58;110168;1244;69802;-65
2023/07/02 08:22:16;;;;;;;8.00;7.30;;;;;;;26.68;57.52;96516.58;110143;1244;69247;-64
2023/07/02 08:24:45;;;;;;;;;;;;;;;26.68;57.61;96514.55;110184;1249;59700;-66
2023/07/02 08:27:16;;;;;;;7.30;6.70;;;;;;;26.79;57.29;96514.10;110119;1244;59735;-64
2023/07/02 08:29:48;;;;;;;7.10;6.40;;;;;;;26.82;58.13;96511.84;110171;1244;70833;-64
2023/07/02 08:32:16;;;;;;;8.40;7.60;;;;;;;27.07;57.23;96511.25;110182;1244;69327;-64
2023/07/02 08:34:46;;;;;;;8.00;7.30;;;;;;;26.81;56.14;96513.44;110168;1241;70663;-65
2023/07/02 08:37:14;;;;;;;7.70;7.00;;;;;;;26.69;56.37;96518.81;110168;1245;59696;-63
2023/07/02 08:39:43;;;;;;;8.00;7.20;;;;;;;26.29;57.11;96518.90;110204;1243;59676;-65
2023/07/02 08:42:13;;;;;;;8.90;7.80;;;;;;;26.26;58.12;96520.13;110165;1241;71434;-63
2023/07/02 08:44:47;;;;;;;7.20;6.50;;;;;;;26.25;58.91;96522.17;110141;1244;69810;-63
2023/07/02 08:47:16;;;;;;;8.00;7.30;;;;;;;26.40;59.30;96522.27;110102;1247;68309;-63
2023/07/02 08:49:48;;;;;;;7.20;6.50;;;;;;;26.51;58.45;96523.92;110124;1242;59661;-65
2023/07/02 08:52:17;;;;;;;7.40;6.70;;;;;;;26.47;59.29;96521.85;110153;1250;59665;-62
2023/07/02 08:54:46;;;;;;;7.40;6.70;;;;;;;26.77;58.95;96519.24;110115;1244;71931;-64
2023/07/02 08:57:15;;;;;;;7.40;6.80;;;;;;;27.13;58.20;96517.29;110135;1241;69094;-63
2023/07/02 08:59:46;;;;;;;7.60;6.90;;;;;;;27.36;57.84;96517.63;110138;1244;69848;-65
2023/07/02 09:02:15;;;;;;;8.00;7.30;;;;;;;27.33;57.29;96519.98;110131;1241;59733;-64
2023/07/02 09:04:44;;;;;;;8.60;7.80;;;;;;;27.42;56.40;96517.25;110196;1244;59707;-63
2023/07/02 09:07:13;;;;;;;8.10;7.30;;;;;;;27.29;56.55;96513.08;110146;1241;71411;-63
2023/07/02 09:09:48;;;;;;;8.10;7.40;;;;;;;27.17;57.17;96510.02;110171;1245;68473;-63
2023/07/02 09:12:27;;;;;;;7.40;6.70;;;;;;;27.01;57.40;96513.21;110141;1245;68731;-63
2023/07/02 09:15:00;;;;;;;7.60;6.90;;;;;;;26.99;57.96;96513.36;110107;1241;59750;-64
2023/07/02 09:17:31;;;;;;;7.60;6.80;;;;;;;26.92;58.02;96515.60;110148;1243;59730;-63
2023/07/02 09:20:04;;;;;;;7.60;6.90;;;;;;;27.13;58.07;96511.48;110165;1244;71956;-63
2023/07/02 09:22:33;;;;;;;7.30;6.50;;;;;;;27.27;57.96;96510.55;110158;1245;69795;-63
2023/07/02 09:25:03;;;;;;;8.20;7.50;;;;;;;27.27;57.54;96510.80;110128;1243;69351;-62
2023/07/02 09:27:36;;;;;;;8.10;7.30;;;;;;;27.18;58.11;96509.88;110164;1243;59633;-64
2023/07/02 09:30:15;;;;;;;9.10;7.60;;;;;;;26.91;59.33;96501.57;110103;1243;59711;-62
2023/07/02 09:32:46;;;;;;;7.90;7.20;;;;;;;26.41;60.45;96503.70;110179;1243;71248;-62
2023/07/02 09:35:15;;;;;;;9.10;8.30;;;;;;;26.36;60.64;96507.73;110161;1241;69246;-64
2023/07/02 09:37:45;;;;;;;9.30;8.40;;;;;;;26.02;60.51;96510.23;110186;1241;69280;-65
2023/07/02 09:40:16;;;;;;;8.40;7.60;;;;;;;25.98;61.00;96514.14;110189;1241;59776;-65
2023/07/02 09:42:52;;;;;;;8.20;7.40;;;;;;;26.16;62.04;96517.00;110255;1241;59703;-64
2023/07/02 09:45:21;;;;;;;7.90;7.20;;;;;;;26.35;60.60;96516.52;110180;1241;71329;-64
2023/07/02 09:47:56;;;;;;;7.60;6.90;;;;;;;26.59;59.83;96515.66;110183;1244;69724;-63
2023/07/02 09:50:27;;;;;;;8.90;8.00;;;;;;;26.91;58.10;96514.02;110170;1243;69868;-63
2023/07/02 09:52:57;;;;;;;8.40;7.60;;;;;;;27.07;57.42;96515.38;110152;1241;59762;-63
2023/07/02 09:55:26;;;;;;;8.10;7.30;;;;;;;27.12;56.73;96517.45;110148;1244;59637;-62
2023/07/02 09:57:55;;;;;;;7.60;6.90;;;;;;;27.07;56.42;96521.22;110143;1244;71958;-65
2023/07/02 10:00:24;;;;;;;8.80;7.80;;;;;;;27.47;56.64;96518.80;110170;1241;69292;-62
2023/07/02 10:02:53;;;;;;;8.00;7.20;;;;;;;27.65;55.51;96517.95;110140;1246;69239;-64
2023/07/02 10:05:33;;;;;;;7.30;6.60;;;;;;;27.17;55.12;96518.85;110188;1244;59625;-64
2023/07/02 10:08:14;;;;;;;8.90;8.00;;;;;;;27.16;55.28;96518.99;110201;1241;59672;-63
2023/07/02 10:10:42;;;;;;;8.50;7.80;;;;;;;27.20;54.61;96511.02;110165;1244;71367;-65
2023/07/02 10:13:11;;;;;;;8.20;7.40;;;;;;;27.11;56.63;96514.09;110184;1243;69777;-64
2023/07/02 10:15:41;;;;;;;8.80;8.10;;;;;;;27.12;56.31;96510.83;110140;1241;68602;-64
2023/07/02 10:18:10;;;;;;;8.10;7.30;;;;;;;26.86;58.24;96504.71;110177;1241;59722;-64
2023/07/02 10:20:41;;;;;;;8.70;7.80;;;;;;;26.54;59.67;96506.59;110198;1245;59633;-65
2023/07/02 10:23:10;;;;;;;9.30;8.40;;;;;;;26.43;60.88;96503.33;110192;1245;71702;-64
2023/07/02 10:25:39;;;;;;;8.90;8.00;;;;;;;26.28;62.15;96502.67;110207;1241;68926;-65
2023/07/02 10:28:19;;;;;;;8.90;8.10;;;;;;;26.14;62.50;96496.39;110136;1243;69708;-64
2023/07/02 10:30:48;;;;;;;8.40;7.60;;;;;;;26.15;62.96;96498.48;110149;1243;59700;-65
2023/07/02 10:33:19;;;;;;;8.10;7.30;;;;;;;26.23;62.86;96495.35;110173;1241;59715;-64
2023/07/02 10:35:49;;;;;;;7.60;6.90;;;;;;;26.23;62.94;96492.25;110170;1244;71971;-65
2023/07/02 10:38:21;;;;;;;7.90;7.10;;;;;;;26.34;62.06;96491.86;110188;1245;69296;-64
2023/07/02 10:41:00;;;;;;;6.70;6.10;;;;;;;26.22;63.52;96489.42;110174;1244;69852;-66
2023/07/02 10:43:31;;;;;;;7.20;6.50;;;;;;;26.50;61.12;96491.05;110159;1243;60186;-65
2023/07/02 10:46:02;;;;;;;9.50;8.50;;;;;;;26.81;60.91;96488.12;110131;1244;59676;-65
2023/07/02 10:48:31;;;;;;;8.50;7.70;;;;;;;27.07;59.82;96485.24;110174;1241;71971;-66
2023/07/02 10:51:10;;;;;;;;;;;;;;;27.14;60.11;96484.94;110186;1241;69219;-64
2023/07/02 10:53:39;;;;;;;7.70;6.90;;;;;;;27.14;59.84;96484.15;110126;1244;69274;-65
2023/07/02 10:56:16;;;;;;;8.60;7.70;;;;;;;26.81;59.64;96479.36;110150;1241;59747;-64
2023/07/02 10:58:46;;;;;;;7.90;7.00;;;;;;;26.83;59.66;96478.75;110195;1243;59697;-64
2023/07/02 11:01:28;;;;;;;9.80;8.80;;;;;;;27.03;60.43;96479.36;110161;1241;71933;-64
2023/07/02 11:04:03;;;;;;;8.00;7.20;;;;;;;27.01;60.84;96481.04;110195;1244;69801;-66
2023/07/02 11:06:33;;;;;;;7.90;7.10;;;;;;;26.56;61.00;96480.10;110096;1243;68410;-64
2023/07/02 11:09:03;;;;;;;8.50;7.60;;;;;;;26.56;61.39;96480.59;109679;1245;586869;-64
2023/07/02 11:11:32;;;;;;;9.40;8.50;;;;;;;26.55;61.52;96481.14;110182;1243;59753;-65
2023/07/02 11:14:01;;;;;;;10.00;9.10;;;;;;;26.54;61.28;96479.08;110151;1241;71378;-63
2023/07/02 11:16:32;;;;;;;9.70;8.80;;;;;;;26.28;60.66;96481.04;110129;1243;69101;-63
2023/07/02 11:19:11;;;;;;;9.70;8.80;;;;;;;26.09;61.42;96478.15;110150;1251;69753;-64
2023/07/02 11:21:51;;;;;;;9.00;8.00;;;;;;;25.94;61.92;96480.05;110163;1244;59690;-62
2023/07/02 11:24:30;;;;;;;9.40;8.50;;;;;;;25.88;63.02;96478.09;110125;1244;59625;-63
2023/07/02 11:27:01;;;;;;;7.30;6.60;;;;;;;25.58;64.71;96481.41;110118;1241;71973;-64
2023/07/02 11:29:31;;;;;;;9.10;8.20;;;;;;;25.42;64.99;96478.63;110133;1243;69796;-65
2023/07/02 11:32:09;;;;;;;9.30;8.50;;;;;;;25.45;65.62;96473.75;110151;1244;69874;-64
2023/07/02 11:34:39;;;;;;;9.90;8.90;;;;;;;25.60;65.97;96469.39;110116;1241;59758;-65
2023/07/02 11:37:08;;;;;;;9.80;8.90;;;;;;;25.72;65.54;96462.42;110185;1244;59683;-63
2023/07/02 11:39:37;;;;;;;7.30;6.60;;;;;;;25.70;64.66;96457.11;110172;1243;71921;-63
2023/07/02 11:42:06;;;;;;;18.80;14.50;;;;;;;25.79;65.64;96451.08;110147;1244;69217;-64